Dina Trader — ZDIW5 — position and weather

sailwx.info

Track history (hours):
 
Tides and Currents Weather Stations Pressure Air Temp Water Temp Dewpoint Dewpoint Depression Visibility Wind Speed Wind Dir Waves Ship Positions

Dina Trader

Last reported at 2017-Dec-15 21:30 UTC. Time now 2017-Dec-15 21:41 UTC.
Position N 53°46' E 009°24'.

Length 134 m; draft 8.4 m.

Type: Ship. MMSI: 236490000.

Date/timePositionNaut miles runAvg speedWind from/ knotsBaromVisibWave heightAir tempDewpointWater temp
2017-Dec-15 21:30N 53°46' E 009°24'816.7
2017-Dec-15 21:00N 53°53' E 009°14'3 6.6
2017-Dec-15 20:30N 53°54' E 009°09'0 0.3
2017-Dec-15 20:00N 53°54' E 009°09'1 1.7
2017-Dec-15 19:30N 53°54' E 009°10'0 0.7
2017-Dec-15 19:01N 53°55' E 009°10'0 0.0
2017-Dec-15 18:30N 53°55' E 009°10'0 0.0
2017-Dec-15 18:00N 53°55' E 009°10'0 0.2
2017-Dec-15 17:30N 53°55' E 009°11'2 3.5
2017-Dec-15 17:00N 53°56' E 009°13'4 7.8
2017-Dec-15 16:31N 53°59' E 009°17'4 7.6
2017-Dec-15 16:00N 54°03' E 009°18'4 7.7
2017-Dec-15 15:30N 54°06' E 009°20'4 7.3
2017-Dec-15 15:00N 54°09' E 009°23'4 8.1
2017-Dec-15 14:30N 54°11' E 009°29'4 8.1
2017-Dec-15 14:00N 54°13' E 009°35'4 7.5
2017-Dec-15 13:30N 54°17' E 009°38'4 7.2
2017-Dec-15 13:00N 54°19' E 009°43'1 1.4
2017-Dec-15 12:30N 54°19' E 009°43'1 1.3
2017-Dec-15 12:00N 54°20' E 009°44'3 6.3
2017-Dec-15 11:30N 54°22' E 009°48'27 1.0
2017-Dec-14 09:49N 54°34' E 010°29'414.0
2017-Dec-14 09:30N 54°35' E 010°37'714.1
2017-Dec-14 09:01N 54°35' E 010°49'714.2
2017-Dec-14 08:31N 54°36' E 011°01'713.7
2017-Dec-14 08:01N 54°35' E 011°13'714.4
2017-Dec-14 07:31N 54°32' E 011°24'714.4
2017-Dec-14 07:01N 54°29' E 011°35'714.0
2017-Dec-14 06:30N 54°26' E 011°46'713.7
2017-Dec-14 06:01N 54°26' E 011°58'714.0
2017-Dec-14 05:30N 54°27' E 012°10'7413.8
2017-Dec-14 00:10N 55°04' E 014°01'210.8
2017-Dec-13 23:58N 55°05' E 014°04'510.0
2017-Dec-13 23:30N 55°08' E 014°10'6 9.7
2017-Dec-13 22:55N 55°13' E 014°16'4 9.5
2017-Dec-13 22:28N 55°16' E 014°20'4 9.3
2017-Dec-13 22:00N 55°19' E 014°25'5 9.1
2017-Dec-13 21:30N 55°23' E 014°30'5 9.4
2017-Dec-13 21:00N 55°26' E 014°35'6 9.9
2017-Dec-13 20:26N 55°29' E 014°44'512.4
2017-Dec-13 19:59N 55°32' E 014°53'712.5
2017-Dec-13 19:26N 55°35' E 015°03'511.7
2017-Dec-13 19:00N 55°38' E 015°11'510.5
2017-Dec-13 18:30N 55°40' E 015°19'510.0
2017-Dec-13 18:00N 55°43' E 015°26'5 9.9
2017-Dec-13 17:30N 55°46' E 015°34'510.0
2017-Dec-13 17:00N 55°48' E 015°42'510.0
2017-Dec-13 16:30N 55°51' E 015°49'5 9.9
2017-Dec-13 16:00N 55°53' E 015°57'510.2
2017-Dec-13 15:30N 55°56' E 016°05'510.1
2017-Dec-13 15:00N 55°58' E 016°13'510.6
2017-Dec-13 14:30N 56°01' E 016°21'611.2
2017-Dec-13 14:00N 56°04' E 016°30'611.3
2017-Dec-13 13:30N 56°06' E 016°38'32913.5
2017-Dec-12 13:13N 59°46' E 024°18'314.3
2017-Dec-12 13:00N 59°47' E 024°24'714.3
2017-Dec-12 12:30N 59°50' E 024°37'714.3
2017-Dec-12 12:00N 59°53' E 024°49'714.1
2017-Dec-12 11:30N 59°57' E 025°02'713.5
2017-Dec-12 11:00N 60°03' E 025°08'611.9
2017-Dec-12 10:30N 60°08' E 025°12'5 9.4
2017-Dec-12 10:00N 60°13' E 025°11'0 0.0
2017-Dec-12 08:37N 60°13' E 025°11'0 0.0
2017-Dec-12 08:24N 60°13' E 025°11'0 0.0
2017-Dec-12 07:31N 60°13' E 025°11'0 0.0
2017-Dec-12 07:25N 60°13' E 025°11'0 0.0
2017-Dec-12 06:45N 60°13' E 025°11'0 0.0
2017-Dec-12 06:30N 60°13' E 025°11'0 0.0
2017-Dec-12 06:00N 60°13' E 025°11'0 0.0
2017-Dec-12 05:24N 60°13' E 025°11'0 0.0
2017-Dec-12 05:00N 60°13' E 025°11'0 0.0
2017-Dec-12 04:29N 60°13' E 025°11'0 0.0
2017-Dec-12 03:47N 60°13' E 025°11'0 0.0
2017-Dec-12 03:29N 60°13' E 025°11'0 0.0
2017-Dec-12 02:59N 60°13' E 025°11'0 0.0
2017-Dec-12 02:29N 60°13' E 025°11'0 0.0
2017-Dec-12 01:58N 60°13' E 025°11'0 0.0
2017-Dec-12 01:28N 60°13' E 025°11'0 0.0
2017-Dec-12 00:58N 60°13' E 025°11'0 0.0
2017-Dec-12 00:28N 60°13' E 025°11'0 0.0
2017-Dec-12 00:01N 60°13' E 025°11'0 0.0
2017-Dec-11 23:27N 60°13' E 025°11'0 0.0
2017-Dec-11 22:51N 60°13' E 025°11'0 0.0
2017-Dec-11 21:20N 60°13' E 025°11'0 0.0
2017-Dec-11 21:00N 60°13' E 025°11'1 2.6
2017-Dec-11 20:31N 60°12' E 025°13'510.6
2017-Dec-11 20:00N 60°07' E 025°12'612.0
2017-Dec-11 19:30N 60°01' E 025°06'612.3
2017-Dec-11 19:00N 59°56' E 025°01'713.6
2017-Dec-11 18:30N 59°50' E 024°56'713.6
2017-Dec-11 18:01N 59°43' E 024°51'612.5
2017-Dec-11 17:30N 59°37' E 024°51'713.6
2017-Dec-11 17:01N 59°31' E 024°58'2 2.9
2017-Dec-11 16:28N 59°29' E 024°58'0 0.0
2017-Dec-11 15:58N 59°29' E 024°58'0 0.0
2017-Dec-11 15:28N 59°29' E 024°58'0 0.0
2017-Dec-11 14:58N 59°29' E 024°58'0 0.0
2017-Dec-11 14:28N 59°29' E 024°58'0 0.0
2017-Dec-11 14:00N 59°29' E 024°58'0 0.0
2017-Dec-11 13:30N 59°29' E 024°58'0 0.0
2017-Dec-11 13:00N 59°29' E 024°58'0 0.0
2017-Dec-11 12:30N 59°29' E 024°58'0 0.0
2017-Dec-11 12:00N 59°29' E 024°58'0 0.0
2017-Dec-11 11:29N 59°29' E 024°58'0 0.0
2017-Dec-11 10:59N 59°29' E 024°58'0 0.0
2017-Dec-11 10:29N 59°29' E 024°58'0 0.0
2017-Dec-11 09:59N 59°29' E 024°58'0 0.0
2017-Dec-11 09:28N 59°29' E 024°58'0 0.0
2017-Dec-11 08:58N 59°29' E 024°58'0 0.0
2017-Dec-11 08:28N 59°29' E 024°58'0 0.0
2017-Dec-11 07:58N 59°29' E 024°58'0 0.0
2017-Dec-11 07:24N 59°29' E 024°58'0 0.0
2017-Dec-11 07:00N 59°29' E 024°58'0 0.0
2017-Dec-11 06:30N 59°29' E 024°58'0 0.0
2017-Dec-11 06:00N 59°29' E 024°58'0 0.0
2017-Dec-11 05:30N 59°29' E 024°58'0 0.0
2017-Dec-11 04:59N 59°29' E 024°58'0 0.5
2017-Dec-11 04:31N 59°30' E 024°58'3 6.9
2017-Dec-11 04:00N 59°33' E 025°01'3 5.2
2017-Dec-11 03:31N 59°35' E 025°01'0 0.6
2017-Dec-11 02:59N 59°36' E 025°01'0 0.0
2017-Dec-11 02:29N 59°36' E 025°01'0 0.0
2017-Dec-11 01:59N 59°36' E 025°01'0 0.0
2017-Dec-11 01:28N 59°36' E 025°01'0 0.0
2017-Dec-11 00:58N 59°36' E 025°01'0 0.0
2017-Dec-11 00:28N 59°36' E 025°01'0 0.0
2017-Dec-10 23:58N 59°36' E 025°01'0 0.0
2017-Dec-10 23:28N 59°36' E 025°01'0 0.0
2017-Dec-10 23:00N 59°36' E 025°01'0 0.0
2017-Dec-10 22:30N 59°36' E 025°01'0 0.0
2017-Dec-10 22:00N 59°36' E 025°01'0 0.1
2017-Dec-10 21:30N 59°36' E 025°02'0 0.1
2017-Dec-10 20:59N 59°36' E 025°01'0 0.0
2017-Dec-10 20:29N 59°36' E 025°01'0 0.0
2017-Dec-10 19:59N 59°36' E 025°01'0 0.0
2017-Dec-10 19:29N 59°36' E 025°02'0 0.0
2017-Dec-10 18:59N 59°36' E 025°02'0 0.0
2017-Dec-10 18:28N 59°36' E 025°02'0 0.0
2017-Dec-10 17:58N 59°36' E 025°01'0 0.1
2017-Dec-10 17:28N 59°36' E 025°02'0 0.0
2017-Dec-10 16:58N 59°36' E 025°02'0 0.0
2017-Dec-10 16:27N 59°36' E 025°02'0 0.1
2017-Dec-10 16:00N 59°36' E 025°02'0 0.1
2017-Dec-10 15:30N 59°36' E 025°02'0 0.1
2017-Dec-10 15:00N 59°36' E 025°02'0 0.1
2017-Dec-10 14:30N 59°36' E 025°02'0 0.1
2017-Dec-10 13:59N 59°36' E 025°02'0 0.0
2017-Dec-10 13:29N 59°36' E 025°02'0 0.1
2017-Dec-10 12:59N 59°36' E 025°02'0 0.1
2017-Dec-10 12:29N 59°36' E 025°02'0 0.1
2017-Dec-10 11:59N 59°36' E 025°02'0 0.0
2017-Dec-10 11:25N 59°36' E 025°02'0 0.0
2017-Dec-10 10:58N 59°36' E 025°02'0 0.0
2017-Dec-10 10:28N 59°36' E 025°02'0 0.0
2017-Dec-10 09:58N 59°36' E 025°02'0 0.0
2017-Dec-10 09:31N 59°36' E 025°02'0 0.0
2017-Dec-10 09:00N 59°36' E 025°02'0 0.1
2017-Dec-10 08:30N 59°36' E 025°01'0 0.0
2017-Dec-10 08:00N 59°36' E 025°02'0 0.1
2017-Dec-10 07:30N 59°36' E 025°01'0 0.0
2017-Dec-10 06:59N 59°36' E 025°01'0 0.0
2017-Dec-10 06:29N 59°36' E 025°01'0 0.0
2017-Dec-10 05:59N 59°36' E 025°01'0 0.0
2017-Dec-10 05:29N 59°36' E 025°02'0 0.1
2017-Dec-10 04:59N 59°36' E 025°01'0 0.1
2017-Dec-10 04:28N 59°36' E 025°01'0 0.0
2017-Dec-10 03:58N 59°36' E 025°01'0 0.1
2017-Dec-10 03:28N 59°36' E 025°01'0 0.1
2017-Dec-10 02:58N 59°36' E 025°02'0 0.0
2017-Dec-10 02:28N 59°36' E 025°01'0 0.0
2017-Dec-10 02:00N 59°36' E 025°01'0 0.6
2017-Dec-10 01:30N 59°35' E 025°01'815.8
2017-Dec-10 01:01N 59°37' E 024°46'714.1
2017-Dec-10 00:30N 59°38' E 024°32'714.7
2017-Dec-10 00:00N 59°37' E 024°18'714.9
2017-Dec-09 23:30N 59°35' E 024°03'31715.4
2017-Dec-09 02:56N 56°02' E 016°43'716.4
2017-Dec-09 02:30N 55°59' E 016°32'816.4
2017-Dec-09 02:00N 55°56' E 016°19'816.2
2017-Dec-09 01:30N 55°52' E 016°06'816.4
2017-Dec-09 01:00N 55°48' E 015°54'816.6
2017-Dec-09 00:30N 55°43' E 015°41'816.6
2017-Dec-09 00:00N 55°39' E 015°28'816.6
2017-Dec-08 23:30N 55°35' E 015°15'816.4
2017-Dec-08 23:00N 55°31' E 015°03'816.4
2017-Dec-08 22:30N 55°27' E 014°50'816.6
2017-Dec-08 22:00N 55°22' E 014°38'816.3
2017-Dec-08 21:30N 55°16' E 014°29'816.1
2017-Dec-08 21:00N 55°10' E 014°20'816.1
2017-Dec-08 20:30N 55°04' E 014°10'1016.0
2017-Dec-08 19:54N 54°59' E 013°56'716.7
2017-Dec-08 19:28N 54°57' E 013°44'5316.5
2017-Dec-08 16:16N 54°35' E 012°20'416.4
2017-Dec-08 16:00N 54°31' E 012°17'1414.6
2017-Dec-08 15:05N 54°24' E 011°57'116.5
2017-Dec-08 15:00N 54°25' E 011°55'816.2
2017-Dec-08 14:30N 54°26' E 011°41'917.5
2017-Dec-08 14:00N 54°30' E 011°28'816.9
2017-Dec-08 13:30N 54°34' E 011°15'816.4
2017-Dec-08 13:00N 54°35' E 011°01'816.4
2017-Dec-08 12:30N 54°34' E 010°47'816.4
2017-Dec-08 12:00N 54°33' E 010°33'25 7.7
2017-Dec-08 08:46N 54°21' E 009°56'3 8.2
2017-Dec-08 08:26N 54°22' E 009°52'3 7.6
2017-Dec-08 08:01N 54°21' E 009°46'1 1.9
2017-Dec-08 07:30N 54°20' E 009°45'3 5.4
2017-Dec-08 07:00N 54°18' E 009°42'4 7.2
2017-Dec-08 06:30N 54°16' E 009°38'4 7.6
2017-Dec-08 06:01N 54°13' E 009°34'4 8.4
2017-Dec-08 05:30N 54°11' E 009°28'4 8.3
2017-Dec-08 05:01N 54°09' E 009°22'4 8.0
2017-Dec-08 04:30N 54°05' E 009°19'3 6.1
2017-Dec-08 04:00N 54°02' E 009°18'4 7.6
2017-Dec-08 03:31N 53°59' E 009°16'3 6.3
2017-Dec-08 03:00N 53°56' E 009°13'3 6.9
2017-Dec-08 02:30N 53°54' E 009°09'0 0.1
2017-Dec-08 01:59N 53°54' E 009°09'0 0.4
2017-Dec-08 01:30N 53°54' E 009°08'2 3.2
2017-Dec-08 01:00N 53°53' E 009°06'1 2.0
2017-Dec-08 00:30N 53°53' E 009°08'2 3.8
2017-Dec-08 00:01N 53°53' E 009°11'612.8
2017-Dec-07 23:30N 53°50' E 009°21'816.6
2017-Dec-07 23:01N 53°43' E 009°28'714.6
2017-Dec-07 22:31N 53°37' E 009°34'714.4
2017-Dec-07 22:00N 53°34' E 009°45'510.5
2017-Dec-07 21:31N 53°33' E 009°54'2 4.0
2017-Dec-07 21:00N 53°32' E 009°57'0 0.0
2017-Dec-07 20:29N 53°32' E 009°57'0 0.0
2017-Dec-07 19:58N 53°32' E 009°57'0 0.0
2017-Dec-07 19:28N 53°32' E 009°57'0 0.0
2017-Dec-07 18:58N 53°32' E 009°57'0 0.0
2017-Dec-07 18:28N 53°32' E 009°57'0 0.0
2017-Dec-07 17:57N 53°32' E 009°57'0 0.0
2017-Dec-07 17:30N 53°32' E 009°57'0 0.0
2017-Dec-07 17:00N 53°32' E 009°57'0 0.0
2017-Dec-07 16:30N 53°32' E 009°57'0 0.0
2017-Dec-07 16:00N 53°32' E 009°57'0 0.0
2017-Dec-07 15:29N 53°32' E 009°57'0 0.0
2017-Dec-07 14:59N 53°32' E 009°57'0 0.0
2017-Dec-07 14:29N 53°32' E 009°57'0 0.0
2017-Dec-07 14:00N 53°32' E 009°57'3 5.3
2017-Dec-07 13:31N 53°32' E 009°53'1 1.8
2017-Dec-07 12:58N 53°32' E 009°54'0 0.0
2017-Dec-07 12:28N 53°32' E 009°54'0 0.0
2017-Dec-07 11:58N 53°32' E 009°54'0 0.0
2017-Dec-07 11:30N 53°32' E 009°54'0 0.0
2017-Dec-07 11:00N 53°32' E 009°54'0 0.0
2017-Dec-07 10:30N 53°32' E 009°54'0 0.0
2017-Dec-07 10:00N 53°32' E 009°54'0 0.0
2017-Dec-07 09:29N 53°32' E 009°54'0 0.0
2017-Dec-07 08:59N 53°32' E 009°54'0 0.0
2017-Dec-07 08:29N 53°32' E 009°54'0 0.0
2017-Dec-07 07:59N 53°32' E 009°54'0 0.0
2017-Dec-07 07:29N 53°32' E 009°54'0 0.0
2017-Dec-07 06:55N 53°32' E 009°54'0 0.0
2017-Dec-07 06:28N 53°32' E 009°54'0 0.0
2017-Dec-07 05:58N 53°32' E 009°54'0 0.0
2017-Dec-07 05:28N 53°32' E 009°54'0 0.0
2017-Dec-07 04:58N 53°32' E 009°54'0 0.0
2017-Dec-07 04:30N 53°32' E 009°54'0 0.0
2017-Dec-07 04:00N 53°32' E 009°54'0 0.0
2017-Dec-07 03:30N 53°32' E 009°54'0 0.0
2017-Dec-07 03:00N 53°32' E 009°54'0 0.0
2017-Dec-07 02:30N 53°32' E 009°54'0 0.0
2017-Dec-07 01:59N 53°32' E 009°54'0 0.0
2017-Dec-07 01:29N 53°32' E 009°54'0 0.0
2017-Dec-07 00:59N 53°32' E 009°54'0 0.0
2017-Dec-07 00:29N 53°32' E 009°54'0 0.0
2017-Dec-06 23:58N 53°32' E 009°54'0 0.0
2017-Dec-06 23:28N 53°32' E 009°54'0 0.0
2017-Dec-06 22:58N 53°32' E 009°54'0 0.0
2017-Dec-06 22:28N 53°32' E 009°54'0 0.0
2017-Dec-06 22:00N 53°32' E 009°54'1 2.0
2017-Dec-06 21:30N 53°32' E 009°53'3 5.8
2017-Dec-06 21:01N 53°31' E 009°56'  
Track history (hours):
 
Tides and Currents Weather Stations Pressure Air Temp Water Temp Dewpoint Dewpoint Depression Visibility Wind Speed Wind Dir Waves Ship Positions

Dina Trader

Last reported at 2017-Dec-15 21:30 UTC. Time now 2017-Dec-15 21:41 UTC.
Position N 53°46' E 009°24'.

Length 134 m; draft 8.4 m.

Type: Ship. MMSI: 236490000.

Date/timePositionNaut miles runAvg speedWind from/ knotsBaromVisibWave heightAir tempDewpointWater temp
2017-Dec-15 21:30N 53°46' E 009°24'816.7
2017-Dec-15 21:00N 53°53' E 009°14'3 6.6
2017-Dec-15 20:30N 53°54' E 009°09'0 0.3
2017-Dec-15 20:00N 53°54' E 009°09'1 1.7
2017-Dec-15 19:30N 53°54' E 009°10'0 0.7
2017-Dec-15 19:01N 53°55' E 009°10'0 0.0
2017-Dec-15 18:30N 53°55' E 009°10'0 0.0
2017-Dec-15 18:00N 53°55' E 009°10'0 0.2
2017-Dec-15 17:30N 53°55' E 009°11'2 3.5
2017-Dec-15 17:00N 53°56' E 009°13'4 7.8
2017-Dec-15 16:31N 53°59' E 009°17'4 7.6
2017-Dec-15 16:00N 54°03' E 009°18'4 7.7
2017-Dec-15 15:30N 54°06' E 009°20'4 7.3
2017-Dec-15 15:00N 54°09' E 009°23'4 8.1
2017-Dec-15 14:30N 54°11' E 009°29'4 8.1
2017-Dec-15 14:00N 54°13' E 009°35'4 7.5
2017-Dec-15 13:30N 54°17' E 009°38'4 7.2
2017-Dec-15 13:00N 54°19' E 009°43'1 1.4
2017-Dec-15 12:30N 54°19' E 009°43'1 1.3
2017-Dec-15 12:00N 54°20' E 009°44'3 6.3
2017-Dec-15 11:30N 54°22' E 009°48'27 1.0
2017-Dec-14 09:49N 54°34' E 010°29'414.0
2017-Dec-14 09:30N 54°35' E 010°37'714.1
2017-Dec-14 09:01N 54°35' E 010°49'714.2
2017-Dec-14 08:31N 54°36' E 011°01'713.7
2017-Dec-14 08:01N 54°35' E 011°13'714.4
2017-Dec-14 07:31N 54°32' E 011°24'714.4
2017-Dec-14 07:01N 54°29' E 011°35'714.0
2017-Dec-14 06:30N 54°26' E 011°46'713.7
2017-Dec-14 06:01N 54°26' E 011°58'714.0
2017-Dec-14 05:30N 54°27' E 012°10'7413.8
2017-Dec-14 00:10N 55°04' E 014°01'210.8
2017-Dec-13 23:58N 55°05' E 014°04'510.0
2017-Dec-13 23:30N 55°08' E 014°10'6 9.7
2017-Dec-13 22:55N 55°13' E 014°16'4 9.5
2017-Dec-13 22:28N 55°16' E 014°20'4 9.3
2017-Dec-13 22:00N 55°19' E 014°25'5 9.1
2017-Dec-13 21:30N 55°23' E 014°30'5 9.4
2017-Dec-13 21:00N 55°26' E 014°35'6 9.9
2017-Dec-13 20:26N 55°29' E 014°44'512.4
2017-Dec-13 19:59N 55°32' E 014°53'712.5
2017-Dec-13 19:26N 55°35' E 015°03'511.7
2017-Dec-13 19:00N 55°38' E 015°11'510.5
2017-Dec-13 18:30N 55°40' E 015°19'510.0
2017-Dec-13 18:00N 55°43' E 015°26'5 9.9
2017-Dec-13 17:30N 55°46' E 015°34'510.0
2017-Dec-13 17:00N 55°48' E 015°42'510.0
2017-Dec-13 16:30N 55°51' E 015°49'5 9.9
2017-Dec-13 16:00N 55°53' E 015°57'510.2
2017-Dec-13 15:30N 55°56' E 016°05'510.1
2017-Dec-13 15:00N 55°58' E 016°13'510.6
2017-Dec-13 14:30N 56°01' E 016°21'611.2
2017-Dec-13 14:00N 56°04' E 016°30'611.3
2017-Dec-13 13:30N 56°06' E 016°38'32913.5
2017-Dec-12 13:13N 59°46' E 024°18'314.3
2017-Dec-12 13:00N 59°47' E 024°24'714.3
2017-Dec-12 12:30N 59°50' E 024°37'714.3
2017-Dec-12 12:00N 59°53' E 024°49'714.1
2017-Dec-12 11:30N 59°57' E 025°02'713.5
2017-Dec-12 11:00N 60°03' E 025°08'611.9
2017-Dec-12 10:30N 60°08' E 025°12'5 9.4
2017-Dec-12 10:00N 60°13' E 025°11'0 0.0
2017-Dec-12 08:37N 60°13' E 025°11'0 0.0
2017-Dec-12 08:24N 60°13' E 025°11'0 0.0
2017-Dec-12 07:31N 60°13' E 025°11'0 0.0
2017-Dec-12 07:25N 60°13' E 025°11'0 0.0
2017-Dec-12 06:45N 60°13' E 025°11'0 0.0
2017-Dec-12 06:30N 60°13' E 025°11'0 0.0
2017-Dec-12 06:00N 60°13' E 025°11'0 0.0
2017-Dec-12 05:24N 60°13' E 025°11'0 0.0
2017-Dec-12 05:00N 60°13' E 025°11'0 0.0
2017-Dec-12 04:29N 60°13' E 025°11'0 0.0
2017-Dec-12 03:47N 60°13' E 025°11'0 0.0
2017-Dec-12 03:29N 60°13' E 025°11'0 0.0
2017-Dec-12 02:59N 60°13' E 025°11'0 0.0
2017-Dec-12 02:29N 60°13' E 025°11'0 0.0
2017-Dec-12 01:58N 60°13' E 025°11'0 0.0
2017-Dec-12 01:28N 60°13' E 025°11'0 0.0
2017-Dec-12 00:58N 60°13' E 025°11'0 0.0
2017-Dec-12 00:28N 60°13' E 025°11'0 0.0
2017-Dec-12 00:01N 60°13' E 025°11'0 0.0
2017-Dec-11 23:27N 60°13' E 025°11'0 0.0
2017-Dec-11 22:51N 60°13' E 025°11'0 0.0
2017-Dec-11 21:20N 60°13' E 025°11'0 0.0
2017-Dec-11 21:00N 60°13' E 025°11'1 2.6
2017-Dec-11 20:31N 60°12' E 025°13'510.6
2017-Dec-11 20:00N 60°07' E 025°12'612.0
2017-Dec-11 19:30N 60°01' E 025°06'612.3
2017-Dec-11 19:00N 59°56' E 025°01'713.6
2017-Dec-11 18:30N 59°50' E 024°56'713.6
2017-Dec-11 18:01N 59°43' E 024°51'612.5
2017-Dec-11 17:30N 59°37' E 024°51'713.6
2017-Dec-11 17:01N 59°31' E 024°58'2 2.9
2017-Dec-11 16:28N 59°29' E 024°58'0 0.0
2017-Dec-11 15:58N 59°29' E 024°58'0 0.0
2017-Dec-11 15:28N 59°29' E 024°58'0 0.0
2017-Dec-11 14:58N 59°29' E 024°58'0 0.0
2017-Dec-11 14:28N 59°29' E 024°58'0 0.0
2017-Dec-11 14:00N 59°29' E 024°58'0 0.0
2017-Dec-11 13:30N 59°29' E 024°58'0 0.0
2017-Dec-11 13:00N 59°29' E 024°58'0 0.0
2017-Dec-11 12:30N 59°29' E 024°58'0 0.0
2017-Dec-11 12:00N 59°29' E 024°58'0 0.0
2017-Dec-11 11:29N 59°29' E 024°58'0 0.0
2017-Dec-11 10:59N 59°29' E 024°58'0 0.0
2017-Dec-11 10:29N 59°29' E 024°58'0 0.0
2017-Dec-11 09:59N 59°29' E 024°58'0 0.0
2017-Dec-11 09:28N 59°29' E 024°58'0 0.0
2017-Dec-11 08:58N 59°29' E 024°58'0 0.0
2017-Dec-11 08:28N 59°29' E 024°58'0 0.0
2017-Dec-11 07:58N 59°29' E 024°58'0 0.0
2017-Dec-11 07:24N 59°29' E 024°58'0 0.0
2017-Dec-11 07:00N 59°29' E 024°58'0 0.0
2017-Dec-11 06:30N 59°29' E 024°58'0 0.0
2017-Dec-11 06:00N 59°29' E 024°58'0 0.0
2017-Dec-11 05:30N 59°29' E 024°58'0 0.0
2017-Dec-11 04:59N 59°29' E 024°58'0 0.5
2017-Dec-11 04:31N 59°30' E 024°58'3 6.9
2017-Dec-11 04:00N 59°33' E 025°01'3 5.2
2017-Dec-11 03:31N 59°35' E 025°01'0 0.6
2017-Dec-11 02:59N 59°36' E 025°01'0 0.0
2017-Dec-11 02:29N 59°36' E 025°01'0 0.0
2017-Dec-11 01:59N 59°36' E 025°01'0 0.0
2017-Dec-11 01:28N 59°36' E 025°01'0 0.0
2017-Dec-11 00:58N 59°36' E 025°01'0 0.0
2017-Dec-11 00:28N 59°36' E 025°01'0 0.0
2017-Dec-10 23:58N 59°36' E 025°01'0 0.0
2017-Dec-10 23:28N 59°36' E 025°01'0 0.0
2017-Dec-10 23:00N 59°36' E 025°01'0 0.0
2017-Dec-10 22:30N 59°36' E 025°01'0 0.0
2017-Dec-10 22:00N 59°36' E 025°01'0 0.1
2017-Dec-10 21:30N 59°36' E 025°02'0 0.1
2017-Dec-10 20:59N 59°36' E 025°01'0 0.0
2017-Dec-10 20:29N 59°36' E 025°01'0 0.0
2017-Dec-10 19:59N 59°36' E 025°01'0 0.0
2017-Dec-10 19:29N 59°36' E 025°02'0 0.0
2017-Dec-10 18:59N 59°36' E 025°02'0 0.0
2017-Dec-10 18:28N 59°36' E 025°02'0 0.0
2017-Dec-10 17:58N 59°36' E 025°01'0 0.1
2017-Dec-10 17:28N 59°36' E 025°02'0 0.0
2017-Dec-10 16:58N 59°36' E 025°02'0 0.0
2017-Dec-10 16:27N 59°36' E 025°02'0 0.1
2017-Dec-10 16:00N 59°36' E 025°02'0 0.1
2017-Dec-10 15:30N 59°36' E 025°02'0 0.1
2017-Dec-10 15:00N 59°36' E 025°02'0 0.1
2017-Dec-10 14:30N 59°36' E 025°02'0 0.1
2017-Dec-10 13:59N 59°36' E 025°02'0 0.0
2017-Dec-10 13:29N 59°36' E 025°02'0 0.1
2017-Dec-10 12:59N 59°36' E 025°02'0 0.1
2017-Dec-10 12:29N 59°36' E 025°02'0 0.1
2017-Dec-10 11:59N 59°36' E 025°02'0 0.0
2017-Dec-10 11:25N 59°36' E 025°02'0 0.0
2017-Dec-10 10:58N 59°36' E 025°02'0 0.0
2017-Dec-10 10:28N 59°36' E 025°02'0 0.0
2017-Dec-10 09:58N 59°36' E 025°02'0 0.0
2017-Dec-10 09:31N 59°36' E 025°02'0 0.0
2017-Dec-10 09:00N 59°36' E 025°02'0 0.1
2017-Dec-10 08:30N 59°36' E 025°01'0 0.0
2017-Dec-10 08:00N 59°36' E 025°02'0 0.1
2017-Dec-10 07:30N 59°36' E 025°01'0 0.0
2017-Dec-10 06:59N 59°36' E 025°01'0 0.0
2017-Dec-10 06:29N 59°36' E 025°01'0 0.0
2017-Dec-10 05:59N 59°36' E 025°01'0 0.0
2017-Dec-10 05:29N 59°36' E 025°02'0 0.1
2017-Dec-10 04:59N 59°36' E 025°01'0 0.1
2017-Dec-10 04:28N 59°36' E 025°01'0 0.0
2017-Dec-10 03:58N 59°36' E 025°01'0 0.1
2017-Dec-10 03:28N 59°36' E 025°01'0 0.1
2017-Dec-10 02:58N 59°36' E 025°02'0 0.0
2017-Dec-10 02:28N 59°36' E 025°01'0 0.0
2017-Dec-10 02:00N 59°36' E 025°01'0 0.6
2017-Dec-10 01:30N 59°35' E 025°01'815.8
2017-Dec-10 01:01N 59°37' E 024°46'714.1
2017-Dec-10 00:30N 59°38' E 024°32'714.7
2017-Dec-10 00:00N 59°37' E 024°18'714.9
2017-Dec-09 23:30N 59°35' E 024°03'31715.4
2017-Dec-09 02:56N 56°02' E 016°43'716.4
2017-Dec-09 02:30N 55°59' E 016°32'816.4
2017-Dec-09 02:00N 55°56' E 016°19'816.2
2017-Dec-09 01:30N 55°52' E 016°06'816.4
2017-Dec-09 01:00N 55°48' E 015°54'816.6
2017-Dec-09 00:30N 55°43' E 015°41'816.6
2017-Dec-09 00:00N 55°39' E 015°28'816.6
2017-Dec-08 23:30N 55°35' E 015°15'816.4
2017-Dec-08 23:00N 55°31' E 015°03'816.4
2017-Dec-08 22:30N 55°27' E 014°50'816.6
2017-Dec-08 22:00N 55°22' E 014°38'816.3
2017-Dec-08 21:30N 55°16' E 014°29'816.1
2017-Dec-08 21:00N 55°10' E 014°20'816.1
2017-Dec-08 20:30N 55°04' E 014°10'1016.0
2017-Dec-08 19:54N 54°59' E 013°56'716.7
2017-Dec-08 19:28N 54°57' E 013°44'5316.5
2017-Dec-08 16:16N 54°35' E 012°20'416.4
2017-Dec-08 16:00N 54°31' E 012°17'1414.6
2017-Dec-08 15:05N 54°24' E 011°57'116.5
2017-Dec-08 15:00N 54°25' E 011°55'816.2
2017-Dec-08 14:30N 54°26' E 011°41'917.5
2017-Dec-08 14:00N 54°30' E 011°28'816.9
2017-Dec-08 13:30N 54°34' E 011°15'816.4
2017-Dec-08 13:00N 54°35' E 011°01'816.4
2017-Dec-08 12:30N 54°34' E 010°47'816.4
2017-Dec-08 12:00N 54°33' E 010°33'25 7.7
2017-Dec-08 08:46N 54°21' E 009°56'3 8.2
2017-Dec-08 08:26N 54°22' E 009°52'3 7.6
2017-Dec-08 08:01N 54°21' E 009°46'1 1.9
2017-Dec-08 07:30N 54°20' E 009°45'3 5.4
2017-Dec-08 07:00N 54°18' E 009°42'4 7.2
2017-Dec-08 06:30N 54°16' E 009°38'4 7.6
2017-Dec-08 06:01N 54°13' E 009°34'4 8.4
2017-Dec-08 05:30N 54°11' E 009°28'4 8.3
2017-Dec-08 05:01N 54°09' E 009°22'4 8.0
2017-Dec-08 04:30N 54°05' E 009°19'3 6.1
2017-Dec-08 04:00N 54°02' E 009°18'4 7.6
2017-Dec-08 03:31N 53°59' E 009°16'3 6.3
2017-Dec-08 03:00N 53°56' E 009°13'3 6.9
2017-Dec-08 02:30N 53°54' E 009°09'0 0.1
2017-Dec-08 01:59N 53°54' E 009°09'0 0.4
2017-Dec-08 01:30N 53°54' E 009°08'2 3.2
2017-Dec-08 01:00N 53°53' E 009°06'1 2.0
2017-Dec-08 00:30N 53°53' E 009°08'2 3.8
2017-Dec-08 00:01N 53°53' E 009°11'612.8
2017-Dec-07 23:30N 53°50' E 009°21'816.6
2017-Dec-07 23:01N 53°43' E 009°28'714.6
2017-Dec-07 22:31N 53°37' E 009°34'714.4
2017-Dec-07 22:00N 53°34' E 009°45'510.5
2017-Dec-07 21:31N 53°33' E 009°54'2 4.0
2017-Dec-07 21:00N 53°32' E 009°57'0 0.0
2017-Dec-07 20:29N 53°32' E 009°57'0 0.0
2017-Dec-07 19:58N 53°32' E 009°57'0 0.0
2017-Dec-07 19:28N 53°32' E 009°57'0 0.0
2017-Dec-07 18:58N 53°32' E 009°57'0 0.0
2017-Dec-07 18:28N 53°32' E 009°57'0 0.0
2017-Dec-07 17:57N 53°32' E 009°57'0 0.0
2017-Dec-07 17:30N 53°32' E 009°57'0 0.0
2017-Dec-07 17:00N 53°32' E 009°57'0 0.0
2017-Dec-07 16:30N 53°32' E 009°57'0 0.0
2017-Dec-07 16:00N 53°32' E 009°57'0 0.0
2017-Dec-07 15:29N 53°32' E 009°57'0 0.0
2017-Dec-07 14:59N 53°32' E 009°57'0 0.0
2017-Dec-07 14:29N 53°32' E 009°57'0 0.0
2017-Dec-07 14:00N 53°32' E 009°57'3 5.3
2017-Dec-07 13:31N 53°32' E 009°53'1 1.8
2017-Dec-07 12:58N 53°32' E 009°54'0 0.0
2017-Dec-07 12:28N 53°32' E 009°54'0 0.0
2017-Dec-07 11:58N 53°32' E 009°54'0 0.0
2017-Dec-07 11:30N 53°32' E 009°54'0 0.0
2017-Dec-07 11:00N 53°32' E 009°54'0 0.0
2017-Dec-07 10:30N 53°32' E 009°54'0 0.0
2017-Dec-07 10:00N 53°32' E 009°54'0 0.0
2017-Dec-07 09:29N 53°32' E 009°54'0 0.0
2017-Dec-07 08:59N 53°32' E 009°54'0 0.0
2017-Dec-07 08:29N 53°32' E 009°54'0 0.0
2017-Dec-07 07:59N 53°32' E 009°54'0 0.0
2017-Dec-07 07:29N 53°32' E 009°54'0 0.0
2017-Dec-07 06:55N 53°32' E 009°54'0 0.0
2017-Dec-07 06:28N 53°32' E 009°54'0 0.0
2017-Dec-07 05:58N 53°32' E 009°54'0 0.0
2017-Dec-07 05:28N 53°32' E 009°54'0 0.0
2017-Dec-07 04:58N 53°32' E 009°54'0 0.0
2017-Dec-07 04:30N 53°32' E 009°54'0 0.0
2017-Dec-07 04:00N 53°32' E 009°54'0 0.0
2017-Dec-07 03:30N 53°32' E 009°54'0 0.0
2017-Dec-07 03:00N 53°32' E 009°54'0 0.0
2017-Dec-07 02:30N 53°32' E 009°54'0 0.0
2017-Dec-07 01:59N 53°32' E 009°54'0 0.0
2017-Dec-07 01:29N 53°32' E 009°54'0 0.0
2017-Dec-07 00:59N 53°32' E 009°54'0 0.0
2017-Dec-07 00:29N 53°32' E 009°54'0 0.0
2017-Dec-06 23:58N 53°32' E 009°54'0 0.0
2017-Dec-06 23:28N 53°32' E 009°54'0 0.0
2017-Dec-06 22:58N 53°32' E 009°54'0 0.0
2017-Dec-06 22:28N 53°32' E 009°54'0 0.0
2017-Dec-06 22:00N 53°32' E 009°54'1 2.0
2017-Dec-06 21:30N 53°32' E 009°53'3 5.8
2017-Dec-06 21:01N 53°31' E 009°56'  

Dump ship's entire track history